createdAt,value
2023-03-02T00:01:37.816Z,101712.53
2023-03-02T00:04:08.179Z,101716.31
2023-03-02T00:06:36.600Z,101709.78
2023-03-02T00:09:04.812Z,101717.56
2023-03-02T00:11:33.827Z,101717.56
2023-03-02T00:14:00.365Z,101718.09
2023-03-02T00:16:26.994Z,101718.91
2023-03-02T00:18:53.511Z,101714.66
2023-03-02T00:21:20.057Z,101710.56
2023-03-02T00:23:46.737Z,101710.94
2023-03-02T00:26:13.255Z,101706.28
2023-03-02T00:28:39.743Z,101705.03
2023-03-02T00:31:06.697Z,101700.75
2023-03-02T00:33:33.734Z,101706.84
2023-03-02T00:36:01.277Z,101708.00
2023-03-02T00:38:28.643Z,101703.75
2023-03-02T00:40:56.300Z,101705.56
2023-03-02T00:43:27.545Z,101702.94
2023-03-02T00:45:55.371Z,101699.63
2023-03-02T00:48:22.594Z,101699.84
2023-03-02T00:50:49.203Z,101693.75
2023-03-02T00:53:15.692Z,101699.00
2023-03-02T00:55:42.219Z,101698.00
2023-03-02T00:58:08.745Z,101695.38
2023-03-02T01:00:37.197Z,101687.03
2023-03-02T01:03:03.870Z,101681.75
2023-03-02T01:05:30.579Z,101693.47
2023-03-02T01:07:57.073Z,101683.56
2023-03-02T01:10:23.611Z,101690.47
2023-03-02T01:12:50.104Z,101685.19
2023-03-02T01:15:16.599Z,101688.50
2023-03-02T01:17:44.005Z,101685.84
2023-03-02T01:20:11.847Z,101687.47
2023-03-02T01:22:38.393Z,101687.84
2023-03-02T01:25:05.522Z,101691.13
2023-03-02T01:27:32.491Z,101694.91
2023-03-02T01:29:59.005Z,101694.09
2023-03-02T01:32:25.739Z,101691.81
2023-03-02T01:34:52.272Z,101689.19
2023-03-02T01:37:20.736Z,101697.75
2023-03-02T01:39:47.310Z,101699.72
2023-03-02T01:42:13.857Z,101692.47
2023-03-02T01:44:42.977Z,101691.28
2023-03-02T01:47:19.698Z,101688.84
2023-03-02T01:50:19.785Z,101687.22
2023-03-02T01:52:46.968Z,101678.31
2023-03-02T01:55:17.095Z,101678.84
2023-03-02T01:57:47.825Z,101672.78
2023-03-02T02:00:19.457Z,101679.66
2023-03-02T02:02:46.184Z,101677.38
2023-03-02T02:05:18.336Z,101671.31
2023-03-02T02:07:45.008Z,101668.03
2023-03-02T02:10:12.144Z,101672.13
2023-03-02T02:12:38.954Z,101664.22
2023-03-02T02:15:06.435Z,101672.13
2023-03-02T02:17:33.212Z,101666.03
2023-03-02T02:20:09.418Z,101666.38
2023-03-02T02:23:06.920Z,101658.34
2023-03-02T02:25:36.463Z,101665.22
2023-03-02T02:28:09.186Z,101660.16
2023-03-02T02:30:38.167Z,101649.31
2023-03-02T02:33:06.008Z,101648.97
2023-03-02T02:35:34.873Z,101648.97
2023-03-02T02:38:07.089Z,101645.06
2023-03-02T02:40:51.626Z,101643.25
2023-03-02T02:43:20.710Z,101637.63
2023-03-02T02:45:49.441Z,101633.72
2023-03-02T02:48:18.972Z,101629.94
2023-03-02T02:50:48.669Z,101626.84
2023-03-02T02:53:27.262Z,101621.91
2023-03-02T02:55:56.842Z,101632.91
2023-03-02T02:58:52.709Z,101626.44
2023-03-02T03:01:25.486Z,101625.47
2023-03-02T03:04:00.650Z,101622.53
2023-03-02T03:06:38.178Z,101617.13
2023-03-02T03:09:06.482Z,101624.34
2023-03-02T03:11:37.338Z,101618.47
2023-03-02T03:14:08.525Z,101620.44
2023-03-02T03:16:36.729Z,101617.16
2023-03-02T03:19:18.410Z,101623.25
2023-03-02T03:21:45.356Z,101617.81
2023-03-02T03:24:12.007Z,101619.75
2023-03-02T03:26:38.556Z,101620.28
2023-03-02T03:29:05.352Z,101616.47
2023-03-02T03:31:31.913Z,101620.09
2023-03-02T03:34:00.725Z,101621.25
2023-03-02T03:36:29.860Z,101616.66
2023-03-02T03:38:57.647Z,101618.63
2023-03-02T03:41:24.542Z,101621.91
2023-03-02T03:43:51.449Z,101614.38
2023-03-02T03:46:18.701Z,101611.09
2023-03-02T03:48:45.308Z,101608.81
2023-03-02T03:51:11.874Z,101610.44
2023-03-02T03:53:38.617Z,101612.25
2023-03-02T03:56:05.497Z,101606.19
2023-03-02T03:58:32.408Z,101609.81
2023-03-02T04:01:00.759Z,101609.97
2023-03-02T04:03:27.667Z,101607.53
2023-03-02T04:05:54.171Z,101617.06
2023-03-02T04:08:20.983Z,101617.06
2023-03-02T04:10:47.535Z,101618.06
2023-03-02T04:13:14.170Z,101619.88
2023-03-02T04:15:41.969Z,101616.03
2023-03-02T04:18:08.632Z,101619.06
2023-03-02T04:20:35.157Z,101618.88
2023-03-02T04:23:02.128Z,101618.06
2023-03-02T04:25:30.174Z,101610.31
2023-03-02T04:27:56.889Z,101614.97
2023-03-02T04:30:26.308Z,101616.13
2023-03-02T04:32:53.320Z,101612.69
2023-03-02T04:35:20.402Z,101613.88
2023-03-02T04:37:47.102Z,101611.88
2023-03-02T04:40:15.980Z,101621.38
2023-03-02T04:42:44.626Z,101620.28
2023-03-02T04:45:12.660Z,101619.28
2023-03-02T04:47:40.300Z,101624.75
2023-03-02T04:50:07.485Z,101630.00
2023-03-02T04:52:34.047Z,101629.19
2023-03-02T04:55:00.551Z,101629.00
2023-03-02T04:57:27.042Z,101629.00
2023-03-02T04:59:53.565Z,101626.38
2023-03-02T05:02:20.149Z,101630.47
2023-03-02T05:04:46.749Z,101635.88
2023-03-02T05:07:13.301Z,101635.53
2023-03-02T05:09:39.804Z,101638.72
2023-03-02T05:12:06.670Z,101643.16
2023-03-02T05:14:33.492Z,101648.06
2023-03-02T05:17:00.022Z,101642.97
2023-03-02T05:19:26.827Z,101638.72
2023-03-02T05:21:53.650Z,101639.72
2023-03-02T05:24:20.233Z,101636.06
2023-03-02T05:26:46.811Z,101637.69
2023-03-02T05:29:13.463Z,101637.69
2023-03-02T05:31:42.708Z,101643.31
2023-03-02T05:34:12.642Z,101638.06
2023-03-02T05:36:39.404Z,101644.31
2023-03-02T05:39:07.117Z,101636.75
2023-03-02T05:41:34.546Z,101655.72
2023-03-02T05:44:01.293Z,101651.91
2023-03-02T05:46:28.340Z,101647.47
2023-03-02T05:48:54.884Z,101644.03
2023-03-02T05:51:21.538Z,101652.72
2023-03-02T05:53:48.196Z,101646.47
2023-03-02T05:56:14.927Z,101643.91
2023-03-02T05:58:41.500Z,101643.75
2023-03-02T06:01:13.166Z,101646.72
2023-03-02T06:03:42.275Z,101653.44
2023-03-02T06:06:08.767Z,101644.72
2023-03-02T06:08:40.974Z,101642.09
2023-03-02T06:11:08.188Z,101647.69
2023-03-02T06:13:34.985Z,101641.81
2023-03-02T06:16:01.712Z,101642.00
2023-03-02T06:18:28.275Z,101644.97
2023-03-02T06:20:54.838Z,101637.91
2023-03-02T06:23:21.472Z,101649.75
2023-03-02T06:25:48.925Z,101654.81
2023-03-02T06:28:16.826Z,101657.00
2023-03-02T06:30:43.406Z,101656.84
2023-03-02T06:33:09.930Z,101655.84
2023-03-02T06:35:36.650Z,101663.09
2023-03-02T06:38:03.340Z,101661.63
2023-03-02T06:40:30.314Z,101657.00
2023-03-02T06:42:56.942Z,101658.81
2023-03-02T06:45:23.461Z,101657.19
2023-03-02T06:47:49.977Z,101661.28
2023-03-02T06:50:16.531Z,101663.44
2023-03-02T06:52:43.135Z,101664.41
2023-03-02T06:55:10.018Z,101669.50
2023-03-02T06:57:36.663Z,101675.28
2023-03-02T07:00:18.206Z,101679.53
2023-03-02T07:02:45.327Z,101686.63
2023-03-02T07:05:13.003Z,101686.34
2023-03-02T07:07:39.898Z,101686.97
2023-03-02T07:10:07.816Z,101689.59
2023-03-02T07:12:34.797Z,101689.25
2023-03-02T07:15:01.344Z,101692.69
2023-03-02T07:17:28.047Z,101690.06
2023-03-02T07:19:54.584Z,101693.03
2023-03-02T07:22:21.414Z,101696.47
2023-03-02T07:24:47.982Z,101700.75
2023-03-02T07:27:15.916Z,101699.09
2023-03-02T07:29:42.492Z,101697.66
2023-03-02T07:32:12.067Z,101694.84
2023-03-02T07:34:39.252Z,101699.47
2023-03-02T07:37:05.900Z,101706.03
2023-03-02T07:39:32.670Z,101703.22
2023-03-02T07:42:00.713Z,101708.13
2023-03-02T07:44:27.918Z,101698.25
2023-03-02T07:46:54.560Z,101705.31
2023-03-02T07:49:21.168Z,101711.38
2023-03-02T07:51:47.773Z,101713.03
2023-03-02T07:54:14.320Z,101708.41
2023-03-02T07:56:40.961Z,101712.53
2023-03-02T07:59:07.763Z,101711.34
2023-03-02T08:01:34.741Z,101711.00
2023-03-02T08:04:01.534Z,101711.81
2023-03-02T08:06:28.155Z,101710.00
2023-03-02T08:08:54.802Z,101715.91
2023-03-02T08:11:21.460Z,101717.53
2023-03-02T08:13:48.079Z,101718.34
2023-03-02T08:16:15.957Z,101718.81
2023-03-02T08:18:43.457Z,101720.63
2023-03-02T08:21:17.009Z,101719.66
2023-03-02T08:23:43.884Z,101721.13
2023-03-02T08:26:13.541Z,101718.16
2023-03-02T08:28:41.112Z,101723.41
2023-03-02T08:31:08.956Z,101721.41
2023-03-02T08:33:36.667Z,101728.94
2023-03-02T08:36:05.158Z,101733.06
2023-03-02T08:38:32.695Z,101734.69
2023-03-02T08:41:02.316Z,101720.53
2023-03-02T08:43:28.856Z,101727.41
2023-03-02T08:45:57.820Z,101723.44
2023-03-02T08:48:25.841Z,101730.19
2023-03-02T08:51:07.809Z,101724.56
2023-03-02T08:53:40.450Z,101734.91
2023-03-02T08:56:21.489Z,101733.75
2023-03-02T08:58:49.348Z,101730.00
2023-03-02T09:01:18.765Z,101726.81
2023-03-02T09:03:45.366Z,101727.44
2023-03-02T09:06:12.233Z,101731.56
2023-03-02T09:08:39.515Z,101729.56
2023-03-02T09:11:06.485Z,101732.66
2023-03-02T09:13:33.647Z,101725.41
2023-03-02T09:16:01.352Z,101736.56
2023-03-02T09:18:29.723Z,101730.94
2023-03-02T09:20:56.954Z,101730.41
2023-03-02T09:23:24.798Z,101734.53
2023-03-02T09:25:52.013Z,101736.00
2023-03-02T09:28:18.841Z,101736.41
2023-03-02T09:30:50.232Z,101732.63
2023-03-02T09:33:16.848Z,101734.72
2023-03-02T09:35:43.456Z,101739.81
2023-03-02T09:38:15.918Z,101742.06
2023-03-02T09:41:07.366Z,101743.34
2023-03-02T09:43:33.850Z,101741.19
2023-03-02T09:46:26.792Z,101740.84
2023-03-02T09:49:22.825Z,101742.13
2023-03-02T09:52:24.470Z,101740.75
2023-03-02T09:54:51.342Z,101743.66
2023-03-02T09:57:26.851Z,101745.94
2023-03-02T10:00:19.074Z,101749.84
2023-03-02T10:03:11.445Z,101746.66
2023-03-02T10:05:48.709Z,101747.94
2023-03-02T10:08:20.748Z,101751.03
2023-03-02T10:11:08.196Z,101755.59
2023-03-02T10:13:49.327Z,101746.31
2023-03-02T10:16:27.025Z,101748.41
2023-03-02T10:19:08.922Z,101748.66
2023-03-02T10:21:41.114Z,101751.41
2023-03-02T10:24:28.924Z,101752.69
2023-03-02T10:26:59.617Z,101756.41
2023-03-02T10:29:49.927Z,101754.22
2023-03-02T10:32:26.947Z,101755.47
2023-03-02T10:34:54.449Z,101763.69
2023-03-02T10:37:25.411Z,101766.56
2023-03-02T10:39:52.904Z,101757.28
2023-03-02T10:42:37.662Z,101752.25
2023-03-02T10:45:27.140Z,101760.28
2023-03-02T10:48:04.039Z,101756.06
2023-03-02T10:50:31.002Z,101758.16
2023-03-02T10:53:00.622Z,101760.25
2023-03-02T10:55:28.795Z,101762.94
2023-03-02T10:58:25.938Z,101762.41
2023-03-02T11:01:04.046Z,101759.19
2023-03-02T11:03:32.176Z,101769.19
2023-03-02T11:06:10.578Z,101767.81
2023-03-02T11:08:37.124Z,101766.22
2023-03-02T11:11:04.585Z,101761.41
2023-03-02T11:13:34.869Z,101761.84
2023-03-02T11:16:04.164Z,101765.56
2023-03-02T11:18:39.827Z,101765.00
2023-03-02T11:21:35.629Z,101768.91
2023-03-02T11:24:17.018Z,101759.59
2023-03-02T11:27:16.697Z,101759.00
2023-03-02T11:29:54.700Z,101756.00
2023-03-02T11:32:47.292Z,101758.91
2023-03-02T11:35:22.856Z,101751.63
2023-03-02T11:37:55.649Z,101755.53
2023-03-02T11:40:30.454Z,101752.47
2023-03-02T11:42:59.571Z,101746.81
2023-03-02T11:45:33.228Z,101745.63
2023-03-02T11:48:12.900Z,101746.22
2023-03-02T11:51:11.545Z,101748.28
2023-03-02T11:54:03.754Z,101752.19
2023-03-02T11:56:33.488Z,101751.81
2023-03-02T11:59:07.563Z,101750.25
2023-03-02T12:01:36.267Z,101748.03
2023-03-02T12:04:26.196Z,101745.63
2023-03-02T12:06:52.947Z,101745.03
2023-03-02T12:09:22.488Z,101747.09
2023-03-02T12:11:56.235Z,101744.69
2023-03-02T12:14:25.871Z,101743.09
2023-03-02T12:17:03.478Z,101742.50
2023-03-02T12:19:41.539Z,101745.38
2023-03-02T12:22:12.339Z,101748.47
2023-03-02T12:24:41.482Z,101747.06
2023-03-02T12:27:14.059Z,101745.66
2023-03-02T12:29:48.637Z,101745.47
2023-03-02T12:32:25.907Z,101738.78
2023-03-02T12:34:55.394Z,101743.06
2023-03-02T12:37:26.534Z,101733.91
2023-03-02T12:40:11.137Z,101734.34
2023-03-02T12:42:55.391Z,101735.59
2023-03-02T12:45:31.009Z,101724.41
2023-03-02T12:48:15.674Z,101728.06
2023-03-02T12:50:42.781Z,101730.34
2023-03-02T12:53:18.289Z,101720.97
2023-03-02T12:55:45.620Z,101730.38
2023-03-02T12:58:22.783Z,101733.81
2023-03-02T13:00:52.390Z,101734.44
2023-03-02T13:03:19.053Z,101734.44
2023-03-02T13:05:47.351Z,101731.59
2023-03-02T13:08:21.175Z,101729.94
2023-03-02T13:10:53.682Z,101725.47
2023-03-02T13:13:21.983Z,101725.47
2023-03-02T13:15:52.646Z,101722.00
2023-03-02T13:18:21.517Z,101721.19
2023-03-02T13:20:49.205Z,101717.72
2023-03-02T13:23:17.740Z,101713.25
2023-03-02T13:25:53.434Z,101707.78
2023-03-02T13:28:37.583Z,101710.22
2023-03-02T13:31:07.763Z,101702.69
2023-03-02T13:33:43.498Z,101704.53
2023-03-02T13:36:21.577Z,101702.47
2023-03-02T13:38:51.164Z,101703.13
2023-03-02T13:41:25.269Z,101702.31
2023-03-02T13:43:51.963Z,101697.59
2023-03-02T13:46:18.486Z,101692.31
2023-03-02T13:49:10.243Z,101691.50
2023-03-02T13:51:43.653Z,101697.59
2023-03-02T13:54:32.302Z,101689.66
2023-03-02T13:57:01.611Z,101685.41
2023-03-02T13:59:29.465Z,101691.72
2023-03-02T14:01:56.105Z,101698.00
2023-03-02T14:04:23.501Z,101689.25
2023-03-02T14:06:52.115Z,101688.25
2023-03-02T14:09:19.642Z,101690.91
2023-03-02T14:11:51.851Z,101689.25
2023-03-02T14:14:24.659Z,101689.25
2023-03-02T14:16:51.636Z,101689.25
2023-03-02T14:19:18.794Z,101690.28
2023-03-02T14:21:46.685Z,101695.56
2023-03-02T14:24:13.496Z,101692.91
2023-03-02T14:26:46.425Z,101689.47
2023-03-02T14:29:31.638Z,101693.94
2023-03-02T14:32:03.611Z,101684.38
2023-03-02T14:34:30.213Z,101689.47
2023-03-02T14:36:59.040Z,101679.91
2023-03-02T14:39:40.090Z,101691.28
2023-03-02T14:42:12.123Z,101680.72
2023-03-02T14:44:39.584Z,101677.25
2023-03-02T14:47:07.193Z,101683.34
2023-03-02T14:49:33.821Z,101684.38
2023-03-02T14:52:05.617Z,101679.91
2023-03-02T14:54:40.472Z,101677.44
2023-03-02T14:57:18.427Z,101671.31
2023-03-02T14:59:44.971Z,101681.09
2023-03-02T15:02:24.439Z,101683.75
2023-03-02T15:04:56.000Z,101678.84
2023-03-02T15:07:24.173Z,101680.69
2023-03-02T15:09:50.663Z,101674.56
2023-03-02T15:12:17.201Z,101672.94
2023-03-02T15:14:43.743Z,101673.94
2023-03-02T15:17:10.308Z,101675.78
2023-03-02T15:19:36.865Z,101678.63
2023-03-02T15:22:04.460Z,101666.44
2023-03-02T15:24:33.228Z,101672.72
2023-03-02T15:27:00.384Z,101668.44
2023-03-02T15:29:26.905Z,101676.38
2023-03-02T15:31:53.841Z,101666.00
2023-03-02T15:34:20.537Z,101673.94
2023-03-02T15:36:47.025Z,101669.84
2023-03-02T15:39:14.332Z,101668.25
2023-03-02T15:41:42.368Z,101659.66
2023-03-02T15:44:21.538Z,101666.78
2023-03-02T15:46:53.763Z,101661.72
2023-03-02T15:49:22.977Z,101662.91
2023-03-02T15:51:51.959Z,101667.19
2023-03-02T15:54:19.046Z,101661.28
2023-03-02T15:56:49.478Z,101665.13
2023-03-02T15:59:16.165Z,101660.88
2023-03-02T16:01:42.698Z,101651.31
2023-03-02T16:04:09.437Z,101657.41
2023-03-02T16:06:35.995Z,101655.56
2023-03-02T16:09:03.086Z,101653.31
2023-03-02T16:11:29.652Z,101655.97
2023-03-02T16:13:56.290Z,101659.63
2023-03-02T16:16:23.360Z,101653.72
2023-03-02T16:18:51.468Z,101649.44
2023-03-02T16:21:18.296Z,101657.38
2023-03-02T16:23:45.174Z,101652.47
2023-03-02T16:26:16.485Z,101652.09
2023-03-02T16:28:43.039Z,101658.19
2023-03-02T16:31:13.304Z,101653.28
2023-03-02T16:33:41.009Z,101664.06
2023-03-02T16:36:09.007Z,101659.19
2023-03-02T16:38:36.982Z,101663.00
2023-03-02T16:41:05.105Z,101660.75
2023-03-02T16:43:31.810Z,101669.13
2023-03-02T16:45:58.413Z,101672.13
2023-03-02T16:48:24.953Z,101666.22
2023-03-02T16:50:58.510Z,101673.53
2023-03-02T16:53:25.169Z,101677.22
2023-03-02T16:55:51.756Z,101675.94
2023-03-02T16:58:18.362Z,101675.72
2023-03-02T17:00:44.862Z,101677.75
2023-03-02T17:03:11.483Z,101681.38
2023-03-02T17:05:42.699Z,101679.97
2023-03-02T17:08:13.790Z,101679.34
2023-03-02T17:10:41.054Z,101678.91
2023-03-02T17:13:08.399Z,101681.75
2023-03-02T17:15:35.470Z,101679.06
2023-03-02T17:18:02.058Z,101680.09
2023-03-02T17:20:28.573Z,101674.38
2023-03-02T17:22:55.149Z,101679.22
2023-03-02T17:25:22.055Z,101683.41
2023-03-02T17:27:49.172Z,101683.03
2023-03-02T17:30:16.272Z,101693.97
2023-03-02T17:32:42.897Z,101684.41
2023-03-02T17:35:11.635Z,101687.25
2023-03-02T17:37:38.611Z,101691.72
2023-03-02T17:40:05.857Z,101702.03
2023-03-02T17:42:32.434Z,101704.25
2023-03-02T17:44:59.432Z,101702.78
2023-03-02T17:47:25.998Z,101707.44
2023-03-02T17:49:52.566Z,101712.28
2023-03-02T17:52:19.506Z,101711.84
2023-03-02T17:54:46.046Z,101716.53
2023-03-02T17:57:13.418Z,101724.44
2023-03-02T17:59:39.912Z,101724.59
2023-03-02T18:02:06.397Z,101718.44
2023-03-02T18:04:32.943Z,101719.66
2023-03-02T18:07:00.083Z,101726.56
2023-03-02T18:09:26.810Z,101718.41
2023-03-02T18:11:53.359Z,101732.63
2023-03-02T18:14:21.006Z,101735.00
2023-03-02T18:16:48.035Z,101736.81
2023-03-02T18:19:14.842Z,101728.28
2023-03-02T18:21:41.898Z,101739.03
2023-03-02T18:24:09.293Z,101748.75
2023-03-02T18:26:35.903Z,101743.84
2023-03-02T18:29:02.406Z,101749.94
2023-03-02T18:31:29.059Z,101751.16
2023-03-02T18:33:55.593Z,101756.00
2023-03-02T18:36:22.104Z,101759.66
2023-03-02T18:38:48.634Z,101757.16
2023-03-02T18:41:15.237Z,101762.84
2023-03-02T18:43:42.560Z,101767.13
2023-03-02T18:46:18.015Z,101769.31
2023-03-02T18:48:44.581Z,101766.66
2023-03-02T18:51:11.058Z,101761.56
2023-03-02T18:53:38.193Z,101776.97
2023-03-02T18:56:05.092Z,101774.34
2023-03-02T18:58:34.171Z,101778.16
2023-03-02T19:01:01.952Z,101778.97
2023-03-02T19:03:30.392Z,101772.22
2023-03-02T19:05:58.213Z,101777.34
2023-03-02T19:08:25.403Z,101777.69
2023-03-02T19:10:53.576Z,101790.44
2023-03-02T19:13:20.940Z,101786.19
2023-03-02T19:15:48.116Z,101779.63
2023-03-02T19:18:16.712Z,101787.72
2023-03-02T19:20:45.644Z,101783.44
2023-03-02T19:23:12.616Z,101790.34
2023-03-02T19:25:39.410Z,101788.72
2023-03-02T19:28:06.223Z,101786.44
2023-03-02T19:30:34.518Z,101787.31
2023-03-02T19:33:01.907Z,101791.94
2023-03-02T19:35:29.563Z,101793.56
2023-03-02T19:37:56.544Z,101794.75
2023-03-02T19:40:25.039Z,101799.22
2023-03-02T19:42:53.618Z,101804.50
2023-03-02T19:45:23.752Z,101801.41
2023-03-02T19:47:50.400Z,101807.66
2023-03-02T19:50:19.088Z,101800.13
2023-03-02T19:52:46.614Z,101811.88
2023-03-02T19:55:14.964Z,101803.13
2023-03-02T19:57:43.218Z,101812.88
2023-03-02T20:00:14.950Z,101808.56
2023-03-02T20:02:41.673Z,101815.66
2023-03-02T20:05:10.256Z,101809.94
2023-03-02T20:07:39.160Z,101818.03
2023-03-02T20:10:08.019Z,101824.13
2023-03-02T20:12:35.280Z,101821.50
2023-03-02T20:15:03.001Z,101835.50
2023-03-02T20:17:29.692Z,101827.94
2023-03-02T20:19:56.921Z,101825.50
2023-03-02T20:22:26.077Z,101828.69
2023-03-02T20:24:52.844Z,101828.69
2023-03-02T20:27:19.337Z,101835.13
2023-03-02T20:29:45.946Z,101836.97
2023-03-02T20:32:13.824Z,101835.31
2023-03-02T20:34:42.103Z,101830.06
2023-03-02T20:37:09.661Z,101835.53
2023-03-02T20:39:39.384Z,101834.66
2023-03-02T20:42:07.388Z,101837.50
2023-03-02T20:44:34.734Z,101842.13
2023-03-02T20:47:08.192Z,101840.50
2023-03-02T20:49:36.711Z,101837.84
2023-03-02T20:52:05.344Z,101843.31
2023-03-02T20:54:35.791Z,101845.97
2023-03-02T20:57:02.436Z,101840.03
2023-03-02T20:59:29.321Z,101849.75
2023-03-02T21:01:55.903Z,101846.66
2023-03-02T21:04:22.774Z,101855.59
2023-03-02T21:06:51.962Z,101850.31
2023-03-02T21:09:19.147Z,101853.13
2023-03-02T21:11:46.780Z,101856.41
2023-03-02T21:14:14.227Z,101848.84
2023-03-02T21:16:42.772Z,101849.22
2023-03-02T21:19:13.901Z,101846.59
2023-03-02T21:21:42.380Z,101849.22
2023-03-02T21:24:11.541Z,101850.94
2023-03-02T21:26:38.369Z,101855.28
2023-03-02T21:29:06.258Z,101864.53
2023-03-02T21:31:33.201Z,101856.81
2023-03-02T21:34:00.926Z,101854.19
2023-03-02T21:36:27.729Z,101860.97
2023-03-02T21:38:54.731Z,101853.41
2023-03-02T21:41:21.850Z,101863.94
2023-03-02T21:43:48.499Z,101864.59
2023-03-02T21:46:19.186Z,101859.97
2023-03-02T21:48:46.823Z,101865.63
2023-03-02T21:51:13.851Z,101869.59
2023-03-02T21:53:40.510Z,101866.66
2023-03-02T21:56:08.192Z,101863.88
2023-03-02T21:58:35.051Z,101859.75
2023-03-02T22:01:01.815Z,101868.81
2023-03-02T22:03:28.390Z,101873.13
2023-03-02T22:05:54.946Z,101865.38
2023-03-02T22:08:21.890Z,101869.81
2023-03-02T22:10:50.624Z,101870.16
2023-03-02T22:13:20.237Z,101866.91
2023-03-02T22:15:47.858Z,101867.25
2023-03-02T22:18:20.383Z,101862.00
2023-03-02T22:20:51.129Z,101863.16
2023-03-02T22:23:22.961Z,101863.16
2023-03-02T22:25:52.556Z,101856.91
2023-03-02T22:28:23.310Z,101858.88
2023-03-02T22:30:51.986Z,101863.69
2023-03-02T22:33:19.929Z,101859.41
2023-03-02T22:35:48.038Z,101861.25
2023-03-02T22:38:20.376Z,101866.69
2023-03-02T22:40:46.959Z,101863.41
2023-03-02T22:43:16.856Z,101867.03
2023-03-02T22:45:43.396Z,101868.19
2023-03-02T22:48:18.878Z,101871.50
2023-03-02T22:50:47.835Z,101866.38
2023-03-02T22:53:27.450Z,101866.56
2023-03-02T22:56:13.677Z,101873.47
2023-03-02T22:58:47.262Z,101862.47
2023-03-02T23:01:27.281Z,101875.00
2023-03-02T23:03:58.188Z,101869.72
2023-03-02T23:06:33.071Z,101874.19
2023-03-02T23:09:01.829Z,101882.22
2023-03-02T23:11:31.625Z,101883.03
2023-03-02T23:14:01.700Z,101874.53
2023-03-02T23:16:34.244Z,101881.59
2023-03-02T23:19:02.295Z,101878.31
2023-03-02T23:21:49.456Z,101885.19
2023-03-02T23:24:19.199Z,101880.13
2023-03-02T23:26:45.751Z,101880.31
2023-03-02T23:29:12.616Z,101879.66
2023-03-02T23:31:39.296Z,101889.56
2023-03-02T23:34:05.909Z,101880.66
2023-03-02T23:36:32.484Z,101880.66
2023-03-02T23:38:59.354Z,101880.19
2023-03-02T23:41:27.065Z,101881.66
2023-03-02T23:43:53.662Z,101878.69
2023-03-02T23:46:20.300Z,101881.53
2023-03-02T23:48:47.859Z,101882.53
2023-03-02T23:51:14.927Z,101875.44
2023-03-02T23:53:41.677Z,101877.25
2023-03-02T23:56:08.400Z,101879.41
2023-03-02T23:58:35.073Z,101878.41
